Jorge Newbery Airpark
SABE : rendu visible

Aérodrome :











RETROUVEZ-NOUS SUR...

 
LOGIN :

S'inscrire | Disclaimer

   EN    FR    IT 

 









Légende :    VFR   VFR Marginal   IFR   IFR Intensif   IFR Très Intensif
Visi : 
Plafond : 
>= 8 km
>= 3000ft
5 à 8 km
1000 à 3000 ft
1500m à 5 km
500 à 1000 ft
800 à 1500m
200 à 500 ft
< 800m
< 200 ft
Symboles :   Orages  Brouillard  Fortes neiges  Fortes précipitations  Vent > 20 kt






- Altitude de l'aérodrome : 18 ft
- Code IATA : AEP


SABE - Jorge Newbery Airpark

DERNIER METAR :
  • 242000Z 15014G24KT CAVOK 28/16 Q1007 TEMPO 8000 -SHRA FEW050

METARs EXPIRÉS :
  • 241900Z 16007KT CAVOK 30/17 Q1007 TEMPO 8000 -SHRA FEW050TCU
  • 241800Z 16006KT CAVOK 31/17 Q1007 NOSIG

TAF TAF SABE
Valide du 24 à 18h jusqu'au 25 à 18h UTC


241700Z 2418/2518 09010KT 9999 FEW035 FEW050TCU TX29/2418Z TN21/2509Z
TEMPO 2418/2420 13015KT 7000 TSRA SCT035 FEW045CB BKN050
BECMG 2421/2423 15015G25KT 4000 TSRA SCT025 OVC040 FEW040CB
BECMG 2502/2504 VRB10KT 7000 RA OVC035
BECMG 2505/2508 5000 -TSRA SCT020 OVC030 FEW040CB BEMCG 2515/1518 23010KT 9999 SCT035
FIR SAEF / Amérique du Sud



MET'MAP, la Météo Aéronautique d'un coup d'oeil ! - Copyright ORBIFLY Décembre 2007 - Disclaimer

ORBIFLY MET'MAP TEAM :

Programmation & Développement : Alexandra Zaïnal
Sur une idée originale de : Baudouin d'Aumeries
Assistance à la programmation : Marc-Olivier Méhu
Soutien technique & logistique : Manuel Goepfert

Contact : metmap@orbifly.com




SOURCES & CREDITS :

   NOAA       Earth
Advisory